createdAt,value
2022-12-11T00:00:13.388Z,58.70
2022-12-11T00:02:40.400Z,62.47
2022-12-11T00:05:08.078Z,48.47
2022-12-11T00:07:35.428Z,46.40
2022-12-11T00:10:02.382Z,45.80
2022-12-11T00:12:30.834Z,44.43
2022-12-11T00:14:57.875Z,43.17
2022-12-11T00:17:24.857Z,43.17
2022-12-11T00:19:51.878Z,50.67
2022-12-11T00:22:18.863Z,38.13
2022-12-11T00:24:45.777Z,34.23
2022-12-11T00:27:12.649Z,49.38
2022-12-11T00:29:39.616Z,63.15
2022-12-11T00:32:06.751Z,59.40
2022-12-11T00:34:33.896Z,46.25
2022-12-11T00:37:01.217Z,45.50
2022-12-11T00:39:28.070Z,38.92
2022-12-11T00:41:54.999Z,38.38
2022-12-11T00:44:22.077Z,43.75
2022-12-11T00:46:48.886Z,44.13
2022-12-11T00:49:15.984Z,53.50
2022-12-11T00:51:42.807Z,62.83
2022-12-11T00:54:09.860Z,60.63
2022-12-11T00:56:36.810Z,49.67
2022-12-11T00:59:03.853Z,59.58
2022-12-11T01:01:30.866Z,59.27
2022-12-11T01:03:58.021Z,50.78
2022-12-11T01:06:26.754Z,54.80
2022-12-11T01:08:54.484Z,47.20
2022-12-11T01:11:21.254Z,51.38
2022-12-11T01:13:48.292Z,56.53
2022-12-11T01:16:16.229Z,61.13
2022-12-11T01:18:43.203Z,67.10
2022-12-11T01:21:12.983Z,69.30
2022-12-11T01:23:40.812Z,75.22
2022-12-11T01:26:15.412Z,69.77
2022-12-11T01:28:43.155Z,66.18
2022-12-11T01:31:12.211Z,71.32
2022-12-11T01:33:39.432Z,54.85
2022-12-11T01:36:11.704Z,66.38
2022-12-11T01:38:38.570Z,50.10
2022-12-11T01:41:05.932Z,44.70
2022-12-11T01:43:32.834Z,43.53
2022-12-11T01:45:59.732Z,38.50
2022-12-11T01:48:30.378Z,40.35
2022-12-11T01:51:01.655Z,41.23
2022-12-11T01:53:40.551Z,37.05
2022-12-11T01:56:09.274Z,46.60
2022-12-11T01:58:42.222Z,44.67
2022-12-11T02:01:15.415Z,57.47
2022-12-11T02:03:42.261Z,74.67
2022-12-11T02:06:36.849Z,60.58
2022-12-11T02:09:07.694Z,56.28
2022-12-11T02:11:46.516Z,55.40
2022-12-11T02:14:19.032Z,54.38
2022-12-11T02:17:00.088Z,54.03
2022-12-11T02:19:59.117Z,58.45
2022-12-11T02:22:48.008Z,60.08
2022-12-11T02:25:23.707Z,61.35
2022-12-11T02:28:15.638Z,64.47
2022-12-11T02:30:46.682Z,68.43
2022-12-11T02:33:15.654Z,64.80
2022-12-11T02:35:45.847Z,52.00
2022-12-11T02:38:25.826Z,49.58
2022-12-11T02:40:54.922Z,46.88
2022-12-11T02:43:24.122Z,50.23
2022-12-11T02:45:53.155Z,60.70
2022-12-11T02:48:23.102Z,55.85
2022-12-11T02:50:55.699Z,49.85
2022-12-11T02:53:26.561Z,52.60
2022-12-11T02:56:02.391Z,40.30
2022-12-11T02:58:33.897Z,46.45
2022-12-11T03:01:00.939Z,42.25
2022-12-11T03:03:30.387Z,43.50
2022-12-11T03:05:57.480Z,40.13
2022-12-11T03:08:24.551Z,42.83
2022-12-11T03:10:51.357Z,35.28
2022-12-11T03:13:21.680Z,36.40
2022-12-11T03:16:10.054Z,35.72
2022-12-11T03:18:41.199Z,45.63
2022-12-11T03:21:55.704Z,69.20
2022-12-11T03:24:55.272Z,75.07
2022-12-11T03:27:39.797Z,78.93
2022-12-11T03:30:12.836Z,77.60
2022-12-11T03:32:47.914Z,86.75
2022-12-11T03:35:32.311Z,75.57
2022-12-11T03:38:04.437Z,76.07
2022-12-11T03:40:34.582Z,67.82
2022-12-11T03:43:02.530Z,71.68
2022-12-11T03:45:30.699Z,62.67
2022-12-11T03:48:01.715Z,52.87
2022-12-11T03:50:32.372Z,45.35
2022-12-11T03:53:01.850Z,48.47
2022-12-11T03:55:30.750Z,50.45
2022-12-11T03:57:57.645Z,46.58
2022-12-11T04:00:24.817Z,48.30
2022-12-11T04:02:51.798Z,48.33
2022-12-11T04:05:18.700Z,46.90
2022-12-11T04:07:45.702Z,42.08
2022-12-11T04:10:12.594Z,40.45
2022-12-11T04:12:39.638Z,35.97
2022-12-11T04:15:06.864Z,35.65
2022-12-11T04:17:36.778Z,45.13
2022-12-11T04:20:05.355Z,49.35
2022-12-11T04:22:32.199Z,69.05
2022-12-11T04:24:59.350Z,66.13
2022-12-11T04:27:26.564Z,63.28
2022-12-11T04:29:53.519Z,62.33
2022-12-11T04:32:20.356Z,59.08
2022-12-11T04:34:47.286Z,64.85
2022-12-11T04:37:14.176Z,63.00
2022-12-11T04:39:41.031Z,62.33
2022-12-11T04:42:07.996Z,60.53
2022-12-11T04:44:34.809Z,43.08
2022-12-11T04:47:01.744Z,48.63
2022-12-11T04:49:28.556Z,48.00
2022-12-11T04:51:55.557Z,51.90
2022-12-11T04:54:22.507Z,42.70
2022-12-11T04:56:49.702Z,41.65
2022-12-11T04:59:16.572Z,46.08
2022-12-11T05:01:43.510Z,40.20
2022-12-11T05:04:10.367Z,52.47
2022-12-11T05:06:37.646Z,49.47
2022-12-11T05:09:04.623Z,41.88
2022-12-11T05:11:31.594Z,42.95
2022-12-11T05:13:58.508Z,47.13
2022-12-11T05:16:25.470Z,56.42
2022-12-11T05:18:52.303Z,56.10
2022-12-11T05:21:19.211Z,51.30
2022-12-11T05:23:46.069Z,59.58
2022-12-11T05:26:16.383Z,53.40
2022-12-11T05:28:44.469Z,64.28
2022-12-11T05:31:41.371Z,59.17
2022-12-11T05:34:08.197Z,71.28
2022-12-11T05:36:35.202Z,65.93
2022-12-11T05:39:05.427Z,79.80
2022-12-11T05:41:33.054Z,76.45
2022-12-11T05:44:00.779Z,69.57
2022-12-11T05:46:30.380Z,58.65
2022-12-11T05:49:00.982Z,48.92
2022-12-11T05:51:29.042Z,53.53
2022-12-11T05:53:57.290Z,45.00
2022-12-11T05:56:29.166Z,61.92
2022-12-11T05:58:57.243Z,62.53
2022-12-11T06:01:33.570Z,57.25
2022-12-11T06:04:01.368Z,53.07
2022-12-11T06:06:28.967Z,54.35
2022-12-11T06:08:57.638Z,51.33
2022-12-11T06:11:27.024Z,59.78
2022-12-11T06:13:54.147Z,63.60
2022-12-11T06:16:22.354Z,45.57
2022-12-11T06:18:49.702Z,48.03
2022-12-11T06:21:30.180Z,57.88
2022-12-11T06:24:01.336Z,56.15
2022-12-11T06:26:28.763Z,53.25
2022-12-11T06:28:55.814Z,66.77
2022-12-11T06:31:23.182Z,67.93
2022-12-11T06:33:50.728Z,71.97
2022-12-11T06:36:20.303Z,70.68
2022-12-11T06:38:47.607Z,60.47
2022-12-11T06:41:15.758Z,49.60
2022-12-11T06:43:43.209Z,65.18
2022-12-11T06:46:15.572Z,51.97
2022-12-11T06:48:47.295Z,47.78
2022-12-11T06:51:20.031Z,42.88
2022-12-11T06:53:52.211Z,47.13
2022-12-11T06:56:22.452Z,40.53
2022-12-11T06:58:49.680Z,43.28
2022-12-11T07:01:23.049Z,42.53
2022-12-11T07:03:52.461Z,41.15
2022-12-11T07:06:19.773Z,50.27
2022-12-11T07:08:46.681Z,43.55
2022-12-11T07:11:16.169Z,69.18
2022-12-11T07:13:43.660Z,36.47
2022-12-11T07:16:13.501Z,38.15
2022-12-11T07:18:42.325Z,32.93
2022-12-11T07:21:11.930Z,34.92
2022-12-11T07:23:39.011Z,38.58
2022-12-11T07:26:07.820Z,32.15
2022-12-11T07:28:35.040Z,37.40
2022-12-11T07:31:07.419Z,36.93
2022-12-11T07:33:34.574Z,31.00
2022-12-11T07:36:06.230Z,31.25
2022-12-11T07:38:33.374Z,35.00
2022-12-11T07:41:05.004Z,31.17
2022-12-11T07:43:33.494Z,34.33
2022-12-11T07:46:07.127Z,38.08
2022-12-11T07:48:38.299Z,33.80
2022-12-11T07:51:17.027Z,30.92
2022-12-11T07:54:04.755Z,30.92
2022-12-11T07:56:31.905Z,34.47
2022-12-11T07:59:06.623Z,37.13
2022-12-11T08:01:36.009Z,35.95
2022-12-11T08:04:05.188Z,43.80
2022-12-11T08:06:35.805Z,40.30
2022-12-11T08:09:05.945Z,42.70
2022-12-11T08:11:32.988Z,50.47
2022-12-11T08:14:00.590Z,56.65
2022-12-11T08:16:28.195Z,75.97
2022-12-11T08:18:55.455Z,65.07
2022-12-11T08:21:28.259Z,75.03
2022-12-11T08:23:55.572Z,68.78
2022-12-11T08:26:25.768Z,57.75
2022-12-11T08:28:53.682Z,55.78
2022-12-11T08:31:20.904Z,49.63
2022-12-11T08:33:48.835Z,56.10
2022-12-11T08:36:19.105Z,51.10
2022-12-11T08:38:46.323Z,49.78
2022-12-11T08:41:16.293Z,47.65
2022-12-11T08:43:43.867Z,50.10
2022-12-11T08:46:12.262Z,44.43
2022-12-11T08:48:40.831Z,51.17
2022-12-11T08:51:12.477Z,51.15
2022-12-11T08:53:39.748Z,49.47
2022-12-11T08:56:10.402Z,46.42
2022-12-11T08:58:37.897Z,45.60
2022-12-11T09:01:10.213Z,41.63
2022-12-11T09:03:39.229Z,47.08
2022-12-11T09:06:12.295Z,48.45
2022-12-11T09:08:40.034Z,50.88
2022-12-11T09:11:20.236Z,51.07
2022-12-11T09:13:47.132Z,46.60
2022-12-11T09:16:18.324Z,48.35
2022-12-11T09:18:47.767Z,49.42
2022-12-11T09:21:17.323Z,46.42
2022-12-11T09:23:44.413Z,49.00
2022-12-11T09:26:14.585Z,41.55
2022-12-11T09:28:46.602Z,37.38
2022-12-11T09:31:23.450Z,42.90
2022-12-11T09:33:58.823Z,38.50
2022-12-11T09:36:25.885Z,30.57
2022-12-11T09:38:52.950Z,45.35
2022-12-11T09:41:22.721Z,40.85
2022-12-11T09:44:13.468Z,42.33
2022-12-11T09:46:44.447Z,38.58
2022-12-11T09:49:32.312Z,41.20
2022-12-11T09:52:07.308Z,44.63
2022-12-11T09:54:34.391Z,44.67
2022-12-11T09:57:03.917Z,48.65
2022-12-11T09:59:30.967Z,44.88
2022-12-11T10:02:18.956Z,46.60
2022-12-11T10:05:08.476Z,48.33
2022-12-11T10:07:52.036Z,43.40
2022-12-11T10:10:39.628Z,43.85
2022-12-11T10:13:34.773Z,50.83
2022-12-11T10:16:19.588Z,44.30
2022-12-11T10:18:47.827Z,45.17
2022-12-11T10:21:24.994Z,45.70
2022-12-11T10:24:00.730Z,50.95
2022-12-11T10:26:29.656Z,45.15
2022-12-11T10:29:01.136Z,41.13
2022-12-11T10:31:54.738Z,35.85
2022-12-11T10:34:26.535Z,38.00
2022-12-11T10:37:00.259Z,41.65
2022-12-11T10:39:28.099Z,47.10
2022-12-11T10:41:57.080Z,50.60
2022-12-11T10:47:42.347Z,50.72
2022-12-11T10:50:25.069Z,57.33
2022-12-11T10:52:53.360Z,54.13
2022-12-11T10:55:25.807Z,57.33
2022-12-11T10:58:05.691Z,56.22
2022-12-11T11:00:42.290Z,62.78
2022-12-11T11:03:25.052Z,44.47
2022-12-11T11:06:14.383Z,38.05
2022-12-11T11:08:47.014Z,36.90
2022-12-11T11:11:19.583Z,40.33
2022-12-11T11:13:47.050Z,40.78
2022-12-11T11:16:17.955Z,36.08
2022-12-11T11:18:53.115Z,36.78
2022-12-11T11:21:24.255Z,35.87
2022-12-11T11:23:53.906Z,36.85
2022-12-11T11:26:22.613Z,42.60
2022-12-11T11:28:53.019Z,39.28
2022-12-11T11:31:22.968Z,40.75
2022-12-11T11:33:57.102Z,39.00
2022-12-11T11:36:29.780Z,40.90
2022-12-11T11:39:18.103Z,40.72
2022-12-11T11:42:01.055Z,39.38
2022-12-11T11:44:37.164Z,43.05
2022-12-11T11:47:20.025Z,43.17
2022-12-11T11:50:09.023Z,47.42
2022-12-11T11:52:57.854Z,43.47
2022-12-11T11:55:54.474Z,51.38
2022-12-11T11:58:34.042Z,49.88
2022-12-11T12:01:01.305Z,50.70
2022-12-11T12:03:29.769Z,55.67
2022-12-11T12:06:36.007Z,51.95
2022-12-11T12:09:41.803Z,50.38
2022-12-11T12:12:34.232Z,38.80
2022-12-11T12:15:33.934Z,37.07
2022-12-11T12:18:24.515Z,41.70
2022-12-11T12:21:06.228Z,42.05
2022-12-11T12:23:49.873Z,41.67
2022-12-11T12:26:25.639Z,40.17
2022-12-11T12:29:21.659Z,41.73
2022-12-11T12:32:14.743Z,41.05
2022-12-11T12:35:00.504Z,43.10
2022-12-11T12:37:30.373Z,54.70
2022-12-11T12:40:03.754Z,72.10
2022-12-11T12:43:06.075Z,39.43
2022-12-11T12:45:53.176Z,54.10
2022-12-11T12:48:23.129Z,36.15
2022-12-11T12:50:51.583Z,39.90
2022-12-11T12:53:22.935Z,38.30
2022-12-11T12:55:51.307Z,40.40
2022-12-11T13:12:16.010Z,40.65
2022-12-11T13:14:43.229Z,37.92
2022-12-11T13:17:22.102Z,36.40
2022-12-11T13:19:51.617Z,35.90
2022-12-11T13:22:24.148Z,37.47
2022-12-11T13:24:54.004Z,34.90
2022-12-11T13:27:36.404Z,35.90
2022-12-11T13:30:24.097Z,35.92
2022-12-11T13:33:16.163Z,36.33
2022-12-11T13:35:43.514Z,40.73
2022-12-11T13:38:21.431Z,39.60
2022-12-11T13:40:54.835Z,41.00
2022-12-11T13:43:28.921Z,39.55
2022-12-11T13:46:03.768Z,34.75
2022-12-11T13:48:48.005Z,39.63
2022-12-11T13:51:21.218Z,31.02
2022-12-11T13:53:48.675Z,31.73
2022-12-11T13:56:24.401Z,34.85
2022-12-11T13:58:51.466Z,33.05
2022-12-11T14:01:25.169Z,31.53
2022-12-11T14:04:09.388Z,32.78
2022-12-11T14:06:39.338Z,27.17
2022-12-11T14:09:08.334Z,34.15
2022-12-11T14:11:39.306Z,48.75
2022-12-11T14:14:18.533Z,44.93
2022-12-11T14:16:48.800Z,37.45
2022-12-11T14:19:19.766Z,36.45
2022-12-11T14:22:02.021Z,33.70
2022-12-11T14:24:29.936Z,31.75
2022-12-11T14:26:58.175Z,26.13
2022-12-11T14:29:35.321Z,24.85
2022-12-11T14:32:07.567Z,29.33
2022-12-11T14:34:39.809Z,33.00
2022-12-11T14:37:08.534Z,29.95
2022-12-11T14:39:44.623Z,30.10
2022-12-11T14:42:18.056Z,31.83
2022-12-11T14:45:08.228Z,35.10
2022-12-11T14:47:41.599Z,30.88
2022-12-11T14:50:22.811Z,32.42
2022-12-11T14:52:55.670Z,30.90
2022-12-11T14:55:30.161Z,29.05
2022-12-11T14:58:04.944Z,30.38
2022-12-11T15:00:37.251Z,28.92
2022-12-11T15:03:24.046Z,27.75
2022-12-11T15:05:53.306Z,36.13
2022-12-11T15:08:26.748Z,31.02
2022-12-11T15:11:15.699Z,31.08
2022-12-11T15:13:57.240Z,33.15
2022-12-11T15:16:26.921Z,33.70
2022-12-11T15:18:56.134Z,32.70
2022-12-11T15:21:35.635Z,29.33
2022-12-11T15:24:05.598Z,30.05
2022-12-11T15:26:44.400Z,28.27
2022-12-11T15:29:31.361Z,30.15
2022-12-11T15:32:13.644Z,28.73
2022-12-11T15:34:43.320Z,29.60
2022-12-11T15:37:29.597Z,34.53
2022-12-11T15:39:58.908Z,35.03
2022-12-11T15:42:33.372Z,37.05
2022-12-11T15:45:01.232Z,35.00
2022-12-11T15:47:30.637Z,33.50
2022-12-11T15:50:01.228Z,32.28
2022-12-11T15:52:28.472Z,32.53
2022-12-11T15:54:55.229Z,35.28
2022-12-11T15:57:24.946Z,33.60
2022-12-11T15:59:55.581Z,35.63
2022-12-11T16:02:23.081Z,35.65
2022-12-11T16:04:50.486Z,35.53
2022-12-11T16:07:23.867Z,37.83
2022-12-11T16:09:51.673Z,35.97
2022-12-11T16:12:19.120Z,39.65
2022-12-11T16:14:46.994Z,38.58
2022-12-11T16:17:15.796Z,33.95
2022-12-11T16:19:43.730Z,37.00
2022-12-11T16:22:12.642Z,35.73
2022-12-11T16:24:40.822Z,34.95
2022-12-11T16:27:09.068Z,34.80
2022-12-11T16:29:41.636Z,32.00
2022-12-11T16:32:09.317Z,39.22
2022-12-11T16:34:37.139Z,37.20
2022-12-11T16:37:05.504Z,41.13
2022-12-11T16:39:33.100Z,36.38
2022-12-11T16:42:00.285Z,35.70
2022-12-11T16:44:27.635Z,34.25
2022-12-11T16:46:54.994Z,35.23
2022-12-11T16:49:22.766Z,36.35
2022-12-11T16:51:50.713Z,37.03
2022-12-11T16:54:18.250Z,35.47
2022-12-11T16:56:46.265Z,31.63
2022-12-11T16:59:13.350Z,35.17
2022-12-11T17:01:40.400Z,32.63
2022-12-11T17:04:07.666Z,29.63
2022-12-11T17:06:34.865Z,28.55
2022-12-11T17:09:02.325Z,30.05
2022-12-11T17:11:29.451Z,34.47
2022-12-11T17:13:58.228Z,42.25
2022-12-11T17:16:27.210Z,66.25
2022-12-11T17:18:54.453Z,56.30
2022-12-11T17:21:22.875Z,49.17
2022-12-11T17:23:50.860Z,41.97
2022-12-11T17:26:18.412Z,49.08
2022-12-11T17:28:45.833Z,50.42
2022-12-11T17:31:18.090Z,43.60
2022-12-11T17:33:47.078Z,42.78
2022-12-11T17:36:20.468Z,38.93
2022-12-11T17:38:48.691Z,35.85
2022-12-11T17:41:20.695Z,34.15
2022-12-11T17:43:54.167Z,29.13
2022-12-11T17:46:21.470Z,29.88
2022-12-11T17:48:49.767Z,30.77
2022-12-11T17:51:18.480Z,27.33
2022-12-11T17:53:45.572Z,29.10
2022-12-11T17:56:12.820Z,33.78
2022-12-11T17:58:40.057Z,38.50
2022-12-11T18:01:09.658Z,28.07
2022-12-11T18:03:37.816Z,39.22
2022-12-11T18:06:10.610Z,45.35
2022-12-11T18:08:38.732Z,42.17
2022-12-11T18:11:17.146Z,42.05
2022-12-11T18:13:45.709Z,36.87
2022-12-11T18:16:24.591Z,41.08
2022-12-11T18:18:52.274Z,35.00
2022-12-11T18:21:25.813Z,46.78
2022-12-11T18:23:58.576Z,40.17
2022-12-11T18:26:26.110Z,38.57
2022-12-11T18:28:53.980Z,33.47
2022-12-11T18:31:22.213Z,35.28
2022-12-11T18:33:49.675Z,35.55
2022-12-11T18:36:18.631Z,32.15
2022-12-11T18:38:46.572Z,32.77
2022-12-11T18:41:14.891Z,31.02
2022-12-11T18:43:43.039Z,30.05
2022-12-11T18:46:12.239Z,29.33
2022-12-11T18:48:39.615Z,24.38
2022-12-11T18:51:12.324Z,24.97
2022-12-11T18:53:40.195Z,25.63
2022-12-11T18:56:10.500Z,25.50
2022-12-11T18:58:37.631Z,32.13
2022-12-11T19:01:25.991Z,36.30
2022-12-11T19:04:02.654Z,43.03
2022-12-11T19:06:33.240Z,37.40
2022-12-11T19:09:01.203Z,47.95
2022-12-11T19:11:30.744Z,45.75
2022-12-11T19:14:08.372Z,37.83
2022-12-11T19:16:38.205Z,40.37
2022-12-11T19:19:11.518Z,43.83
2022-12-11T19:21:39.404Z,42.88
2022-12-11T19:24:09.296Z,47.55
2022-12-11T19:26:36.543Z,47.65
2022-12-11T19:29:04.438Z,47.77
2022-12-11T19:31:33.153Z,45.72
2022-12-11T19:34:01.189Z,51.72
2022-12-11T19:36:30.548Z,48.65
2022-12-11T19:39:01.564Z,46.30
2022-12-11T19:41:30.694Z,42.83
2022-12-11T19:43:59.112Z,41.20
2022-12-11T19:46:27.338Z,46.42
2022-12-11T19:48:57.139Z,47.42
2022-12-11T19:51:28.631Z,42.38
2022-12-11T19:53:56.246Z,44.83
2022-12-11T19:56:23.815Z,54.15
2022-12-11T19:58:50.931Z,49.72
2022-12-11T20:01:20.224Z,47.33
2022-12-11T20:03:47.290Z,47.40
2022-12-11T20:06:14.439Z,41.07
2022-12-11T20:08:45.878Z,39.70
2022-12-11T20:11:17.917Z,38.58
2022-12-11T20:13:46.997Z,39.92
2022-12-11T20:16:15.712Z,40.55
2022-12-11T20:18:45.421Z,36.87
2022-12-11T20:21:15.713Z,39.15
2022-12-11T20:23:46.974Z,36.75
2022-12-11T20:26:20.297Z,30.27
2022-12-11T20:28:49.786Z,32.42
2022-12-11T20:31:21.605Z,33.03
2022-12-11T20:33:49.863Z,34.17
2022-12-11T20:36:19.375Z,37.40
2022-12-11T20:38:47.035Z,32.78
2022-12-11T20:41:16.763Z,35.83
2022-12-11T20:43:43.732Z,29.23
2022-12-11T20:46:12.917Z,34.28
2022-12-11T20:48:41.685Z,34.58
2022-12-11T20:51:11.289Z,33.47
2022-12-11T20:53:38.964Z,33.03
2022-12-11T20:56:14.188Z,29.67
2022-12-11T20:58:42.012Z,32.33
2022-12-11T21:01:17.071Z,33.50
2022-12-11T21:03:44.142Z,28.77
2022-12-11T21:06:23.331Z,25.25
2022-12-11T21:08:50.210Z,26.53
2022-12-11T21:11:17.227Z,24.33
2022-12-11T21:13:44.196Z,23.20
2022-12-11T21:16:11.560Z,24.88
2022-12-11T21:18:39.348Z,21.02
2022-12-11T21:21:06.490Z,22.93
2022-12-11T21:23:33.846Z,22.30
2022-12-11T21:26:01.042Z,23.45
2022-12-11T21:28:33.586Z,24.30
2022-12-11T21:31:07.267Z,22.92
2022-12-11T21:33:34.289Z,23.13
2022-12-11T21:36:02.716Z,22.23
2022-12-11T21:38:30.062Z,22.10
2022-12-11T21:40:57.910Z,22.60
2022-12-11T21:43:24.834Z,27.25
2022-12-11T21:46:00.833Z,25.83
2022-12-11T21:48:28.900Z,26.23
2022-12-11T21:50:56.179Z,28.27
2022-12-11T21:53:23.176Z,28.75
2022-12-11T21:55:50.117Z,26.95
2022-12-11T21:58:16.968Z,22.87
2022-12-11T22:00:46.056Z,22.88
2022-12-11T22:03:12.930Z,21.30
2022-12-11T22:05:39.845Z,19.35
2022-12-11T22:08:06.711Z,20.63
2022-12-11T22:10:33.737Z,22.60
2022-12-11T22:13:00.586Z,18.00
2022-12-11T22:15:27.537Z,20.17
2022-12-11T22:17:54.384Z,18.48
2022-12-11T22:20:21.402Z,18.17
2022-12-11T22:22:48.400Z,17.33
2022-12-11T22:25:15.568Z,17.73
2022-12-11T22:27:42.530Z,15.80
2022-12-11T22:30:10.360Z,17.00
2022-12-11T22:32:37.372Z,16.17
2022-12-11T22:35:04.808Z,15.63
2022-12-11T22:37:31.588Z,18.10
2022-12-11T22:39:58.766Z,16.98
2022-12-11T22:42:25.664Z,19.48
2022-12-11T22:44:52.507Z,15.80
2022-12-11T22:47:19.387Z,15.57
2022-12-11T22:49:46.291Z,18.00
2022-12-11T22:52:13.478Z,17.38
2022-12-11T22:54:41.541Z,18.08
2022-12-11T22:57:08.742Z,16.98
2022-12-11T22:59:35.787Z,17.57
2022-12-11T23:02:03.176Z,18.83
2022-12-11T23:04:30.279Z,19.42
2022-12-11T23:06:57.259Z,18.40
2022-12-11T23:09:24.179Z,19.15
2022-12-11T23:11:52.780Z,17.47
2022-12-11T23:14:19.990Z,17.08
2022-12-11T23:16:46.868Z,17.83
2022-12-11T23:19:14.334Z,18.42
2022-12-11T23:21:41.575Z,17.25
2022-12-11T23:24:09.024Z,19.57
2022-12-11T23:26:36.238Z,19.63
2022-12-11T23:29:05.283Z,16.02
2022-12-11T23:31:33.007Z,21.60
2022-12-11T23:33:59.976Z,22.17
2022-12-11T23:36:27.864Z,20.97
2022-12-11T23:38:55.324Z,20.38
2022-12-11T23:41:22.911Z,22.13
2022-12-11T23:43:49.788Z,20.27
2022-12-11T23:46:20.488Z,19.55
2022-12-11T23:48:47.432Z,18.17
2022-12-11T23:51:17.392Z,21.67
2022-12-11T23:53:44.528Z,18.73
2022-12-11T23:56:15.653Z,18.80
2022-12-11T23:58:42.614Z,22.45
